sensor_id;sensor_type;location;lat;lon;timestamp;P1;durP1;ratioP1;P2;durP2;ratioP2
73733;SDS011;62039;50.000;9.064;2022-12-24T00:01:12;6.90;;;1.87;;
73733;SDS011;62039;50.000;9.064;2022-12-24T00:03:38;6.27;;;1.87;;
73733;SDS011;62039;50.000;9.064;2022-12-24T00:06:05;5.53;;;1.70;;
73733;SDS011;62039;50.000;9.064;2022-12-24T00:08:33;5.27;;;1.63;;
73733;SDS011;62039;50.000;9.064;2022-12-24T00:10:59;7.63;;;2.07;;
73733;SDS011;62039;50.000;9.064;2022-12-24T00:13:27;4.23;;;1.50;;
73733;SDS011;62039;50.000;9.064;2022-12-24T00:15:54;5.57;;;1.90;;
73733;SDS011;62039;50.000;9.064;2022-12-24T00:18:21;3.10;;;1.40;;
73733;SDS011;62039;50.000;9.064;2022-12-24T00:20:47;3.00;;;1.37;;
73733;SDS011;62039;50.000;9.064;2022-12-24T00:23:14;4.67;;;1.60;;
73733;SDS011;62039;50.000;9.064;2022-12-24T00:25:41;1.83;;;1.10;;
73733;SDS011;62039;50.000;9.064;2022-12-24T00:28:08;3.97;;;1.53;;
73733;SDS011;62039;50.000;9.064;2022-12-24T00:30:37;4.20;;;1.40;;
73733;SDS011;62039;50.000;9.064;2022-12-24T00:33:04;5.23;;;1.70;;
73733;SDS011;62039;50.000;9.064;2022-12-24T00:35:32;8.30;;;1.83;;
73733;SDS011;62039;50.000;9.064;2022-12-24T00:37:58;6.27;;;1.90;;
73733;SDS011;62039;50.000;9.064;2022-12-24T00:40:25;4.07;;;1.70;;
73733;SDS011;62039;50.000;9.064;2022-12-24T00:42:51;5.63;;;1.57;;
73733;SDS011;62039;50.000;9.064;2022-12-24T00:45:18;3.50;;;1.43;;
73733;SDS011;62039;50.000;9.064;2022-12-24T00:47:46;2.53;;;1.33;;
73733;SDS011;62039;50.000;9.064;2022-12-24T00:50:12;3.70;;;1.50;;
73733;SDS011;62039;50.000;9.064;2022-12-24T00:52:39;2.50;;;1.20;;
73733;SDS011;62039;50.000;9.064;2022-12-24T00:55:06;4.70;;;1.73;;
73733;SDS011;62039;50.000;9.064;2022-12-24T00:57:33;4.73;;;1.80;;
73733;SDS011;62039;50.000;9.064;2022-12-24T00:59:59;5.87;;;2.03;;
73733;SDS011;62039;50.000;9.064;2022-12-24T01:02:26;2.83;;;1.57;;
73733;SDS011;62039;50.000;9.064;2022-12-24T01:04:54;4.83;;;1.70;;
73733;SDS011;62039;50.000;9.064;2022-12-24T01:07:21;4.90;;;1.80;;
73733;SDS011;62039;50.000;9.064;2022-12-24T01:09:47;3.97;;;1.53;;
73733;SDS011;62039;50.000;9.064;2022-12-24T01:12:14;3.53;;;1.50;;
73733;SDS011;62039;50.000;9.064;2022-12-24T01:14:40;5.17;;;1.67;;
73733;SDS011;62039;50.000;9.064;2022-12-24T01:17:07;4.47;;;1.70;;
73733;SDS011;62039;50.000;9.064;2022-12-24T01:19:33;4.33;;;1.60;;
73733;SDS011;62039;50.000;9.064;2022-12-24T01:22:01;3.23;;;1.57;;
73733;SDS011;62039;50.000;9.064;2022-12-24T01:24:28;4.27;;;1.43;;
73733;SDS011;62039;50.000;9.064;2022-12-24T01:26:54;3.07;;;1.40;;
73733;SDS011;62039;50.000;9.064;2022-12-24T01:29:21;5.93;;;1.83;;
73733;SDS011;62039;50.000;9.064;2022-12-24T01:31:47;4.20;;;1.30;;
73733;SDS011;62039;50.000;9.064;2022-12-24T01:34:14;2.87;;;1.30;;
73733;SDS011;62039;50.000;9.064;2022-12-24T01:36:40;5.00;;;1.47;;
73733;SDS011;62039;50.000;9.064;2022-12-24T01:39:08;3.07;;;1.10;;
73733;SDS011;62039;50.000;9.064;2022-12-24T01:41:35;3.07;;;1.10;;
73733;SDS011;62039;50.000;9.064;2022-12-24T01:44:18;5.47;;;1.60;;
73733;SDS011;62039;50.000;9.064;2022-12-24T01:46:47;4.27;;;1.27;;
73733;SDS011;62039;50.000;9.064;2022-12-24T01:49:16;4.97;;;1.47;;
73733;SDS011;62039;50.000;9.064;2022-12-24T01:51:44;4.37;;;1.37;;
73733;SDS011;62039;50.000;9.064;2022-12-24T01:54:17;3.17;;;1.17;;
73733;SDS011;62039;50.000;9.064;2022-12-24T01:56:48;3.30;;;1.60;;
73733;SDS011;62039;50.000;9.064;2022-12-24T01:59:18;4.53;;;1.63;;
73733;SDS011;62039;50.000;9.064;2022-12-24T02:01:46;3.77;;;1.50;;
73733;SDS011;62039;50.000;9.064;2022-12-24T02:04:16;6.43;;;2.10;;
73733;SDS011;62039;50.000;9.064;2022-12-24T02:06:51;3.83;;;1.50;;
73733;SDS011;62039;50.000;9.064;2022-12-24T02:09:18;7.60;;;1.57;;
73733;SDS011;62039;50.000;9.064;2022-12-24T02:11:45;5.47;;;1.83;;
73733;SDS011;62039;50.000;9.064;2022-12-24T02:14:12;5.07;;;1.77;;
73733;SDS011;62039;50.000;9.064;2022-12-24T02:16:42;4.33;;;1.50;;
73733;SDS011;62039;50.000;9.064;2022-12-24T02:22:15;6.67;;;2.60;;
73733;SDS011;62039;50.000;9.064;2022-12-24T02:27:45;7.33;;;1.97;;
73733;SDS011;62039;50.000;9.064;2022-12-24T02:30:22;4.77;;;1.80;;
73733;SDS011;62039;50.000;9.064;2022-12-24T02:35:44;5.03;;;1.43;;
73733;SDS011;62039;50.000;9.064;2022-12-24T02:38:16;4.30;;;1.37;;
73733;SDS011;62039;50.000;9.064;2022-12-24T02:40:50;3.70;;;1.53;;
73733;SDS011;62039;50.000;9.064;2022-12-24T02:43:19;3.97;;;1.67;;
73733;SDS011;62039;50.000;9.064;2022-12-24T02:45:51;5.57;;;2.10;;
73733;SDS011;62039;50.000;9.064;2022-12-24T02:48:24;6.40;;;1.60;;
73733;SDS011;62039;50.000;9.064;2022-12-24T02:50:53;6.17;;;2.13;;
73733;SDS011;62039;50.000;9.064;2022-12-24T02:53:21;5.67;;;1.80;;
73733;SDS011;62039;50.000;9.064;2022-12-24T02:55:49;10.93;;;2.23;;
73733;SDS011;62039;50.000;9.064;2022-12-24T02:58:25;3.93;;;1.90;;
73733;SDS011;62039;50.000;9.064;2022-12-24T03:01:06;6.97;;;2.37;;
73733;SDS011;62039;50.000;9.064;2022-12-24T03:03:43;9.87;;;2.40;;
73733;SDS011;62039;50.000;9.064;2022-12-24T03:06:20;4.37;;;2.07;;
73733;SDS011;62039;50.000;9.064;2022-12-24T03:08:58;4.00;;;1.90;;
73733;SDS011;62039;50.000;9.064;2022-12-24T03:11:27;3.60;;;1.70;;
73733;SDS011;62039;50.000;9.064;2022-12-24T03:13:54;5.20;;;1.70;;
73733;SDS011;62039;50.000;9.064;2022-12-24T03:16:26;4.23;;;1.47;;
73733;SDS011;62039;50.000;9.064;2022-12-24T03:18:53;5.67;;;1.77;;
73733;SDS011;62039;50.000;9.064;2022-12-24T03:21:23;3.47;;;1.30;;
73733;SDS011;62039;50.000;9.064;2022-12-24T03:23:53;3.80;;;1.60;;
73733;SDS011;62039;50.000;9.064;2022-12-24T03:26:20;4.83;;;1.50;;
73733;SDS011;62039;50.000;9.064;2022-12-24T03:28:47;3.73;;;1.30;;
73733;SDS011;62039;50.000;9.064;2022-12-24T03:31:14;3.23;;;1.37;;
73733;SDS011;62039;50.000;9.064;2022-12-24T03:33:43;5.40;;;1.80;;
73733;SDS011;62039;50.000;9.064;2022-12-24T03:36:10;5.43;;;1.80;;
73733;SDS011;62039;50.000;9.064;2022-12-24T03:38:37;5.67;;;1.63;;
73733;SDS011;62039;50.000;9.064;2022-12-24T03:41:04;4.70;;;1.63;;
73733;SDS011;62039;50.000;9.064;2022-12-24T03:43:31;5.07;;;1.57;;
73733;SDS011;62039;50.000;9.064;2022-12-24T03:45:57;4.17;;;1.73;;
73733;SDS011;62039;50.000;9.064;2022-12-24T03:48:29;6.20;;;1.57;;
73733;SDS011;62039;50.000;9.064;2022-12-24T03:50:59;5.07;;;1.70;;
73733;SDS011;62039;50.000;9.064;2022-12-24T03:53:26;5.37;;;1.60;;
73733;SDS011;62039;50.000;9.064;2022-12-24T03:55:52;6.77;;;1.97;;
73733;SDS011;62039;50.000;9.064;2022-12-24T03:58:19;8.10;;;2.10;;
73733;SDS011;62039;50.000;9.064;2022-12-24T04:00:46;4.60;;;1.60;;
73733;SDS011;62039;50.000;9.064;2022-12-24T04:03:12;4.77;;;1.67;;
73733;SDS011;62039;50.000;9.064;2022-12-24T04:05:39;3.40;;;1.40;;
73733;SDS011;62039;50.000;9.064;2022-12-24T04:08:07;7.23;;;1.97;;
73733;SDS011;62039;50.000;9.064;2022-12-24T04:10:33;2.90;;;1.27;;
73733;SDS011;62039;50.000;9.064;2022-12-24T04:13:00;4.27;;;1.40;;
73733;SDS011;62039;50.000;9.064;2022-12-24T04:15:27;6.50;;;1.80;;
73733;SDS011;62039;50.000;9.064;2022-12-24T04:17:53;2.90;;;1.20;;
73733;SDS011;62039;50.000;9.064;2022-12-24T04:20:20;3.50;;;1.43;;
73733;SDS011;62039;50.000;9.064;2022-12-24T04:22:46;4.17;;;1.60;;
73733;SDS011;62039;50.000;9.064;2022-12-24T04:25:14;2.60;;;1.10;;
73733;SDS011;62039;50.000;9.064;2022-12-24T04:27:41;6.40;;;1.57;;
73733;SDS011;62039;50.000;9.064;2022-12-24T04:30:08;3.77;;;1.40;;
73733;SDS011;62039;50.000;9.064;2022-12-24T04:32:35;3.57;;;1.47;;
73733;SDS011;62039;50.000;9.064;2022-12-24T04:35:01;4.43;;;1.50;;
73733;SDS011;62039;50.000;9.064;2022-12-24T04:37:28;4.93;;;1.50;;
73733;SDS011;62039;50.000;9.064;2022-12-24T04:39:54;5.10;;;1.40;;
73733;SDS011;62039;50.000;9.064;2022-12-24T04:42:22;3.47;;;1.60;;
73733;SDS011;62039;50.000;9.064;2022-12-24T04:44:49;4.20;;;1.70;;
73733;SDS011;62039;50.000;9.064;2022-12-24T04:47:15;3.97;;;1.80;;
73733;SDS011;62039;50.000;9.064;2022-12-24T04:49:42;4.67;;;1.63;;
73733;SDS011;62039;50.000;9.064;2022-12-24T04:52:08;4.50;;;1.47;;
73733;SDS011;62039;50.000;9.064;2022-12-24T04:54:35;5.33;;;1.50;;
73733;SDS011;62039;50.000;9.064;2022-12-24T04:57:01;5.50;;;1.50;;
73733;SDS011;62039;50.000;9.064;2022-12-24T04:59:29;4.60;;;1.53;;
73733;SDS011;62039;50.000;9.064;2022-12-24T05:01:56;3.23;;;1.30;;
73733;SDS011;62039;50.000;9.064;2022-12-24T05:04:23;4.23;;;1.27;;
73733;SDS011;62039;50.000;9.064;2022-12-24T05:06:49;3.13;;;1.30;;
73733;SDS011;62039;50.000;9.064;2022-12-24T05:09:16;4.37;;;1.50;;
73733;SDS011;62039;50.000;9.064;2022-12-24T05:11:43;5.40;;;1.53;;
73733;SDS011;62039;50.000;9.064;2022-12-24T05:14:09;6.73;;;1.90;;
73733;SDS011;62039;50.000;9.064;2022-12-24T05:16:37;4.57;;;1.83;;
73733;SDS011;62039;50.000;9.064;2022-12-24T05:19:04;5.40;;;1.70;;
73733;SDS011;62039;50.000;9.064;2022-12-24T05:21:30;6.40;;;1.97;;
73733;SDS011;62039;50.000;9.064;2022-12-24T05:23:57;6.33;;;2.10;;
73733;SDS011;62039;50.000;9.064;2022-12-24T05:26:26;6.07;;;2.40;;
73733;SDS011;62039;50.000;9.064;2022-12-24T05:28:54;4.90;;;2.00;;
73733;SDS011;62039;50.000;9.064;2022-12-24T05:31:22;4.40;;;1.47;;
73733;SDS011;62039;50.000;9.064;2022-12-24T05:33:52;4.60;;;1.60;;
73733;SDS011;62039;50.000;9.064;2022-12-24T05:36:19;5.33;;;1.80;;
73733;SDS011;62039;50.000;9.064;2022-12-24T05:38:46;4.83;;;1.80;;
73733;SDS011;62039;50.000;9.064;2022-12-24T05:41:12;7.27;;;1.77;;
73733;SDS011;62039;50.000;9.064;2022-12-24T05:43:39;5.57;;;1.97;;
73733;SDS011;62039;50.000;9.064;2022-12-24T05:46:07;8.23;;;2.00;;
73733;SDS011;62039;50.000;9.064;2022-12-24T05:48:35;6.87;;;1.87;;
73733;SDS011;62039;50.000;9.064;2022-12-24T05:51:04;7.97;;;1.80;;
73733;SDS011;62039;50.000;9.064;2022-12-24T05:53:32;5.60;;;1.73;;
73733;SDS011;62039;50.000;9.064;2022-12-24T05:56:02;5.93;;;1.87;;
73733;SDS011;62039;50.000;9.064;2022-12-24T05:58:30;4.77;;;1.80;;
73733;SDS011;62039;50.000;9.064;2022-12-24T06:00:56;6.97;;;1.90;;
73733;SDS011;62039;50.000;9.064;2022-12-24T06:03:23;5.63;;;1.63;;
73733;SDS011;62039;50.000;9.064;2022-12-24T06:05:56;5.80;;;1.60;;
73733;SDS011;62039;50.000;9.064;2022-12-24T06:08:25;4.10;;;1.90;;
73733;SDS011;62039;50.000;9.064;2022-12-24T06:10:53;4.33;;;1.33;;
73733;SDS011;62039;50.000;9.064;2022-12-24T06:13:21;3.57;;;1.30;;
73733;SDS011;62039;50.000;9.064;2022-12-24T06:15:47;3.87;;;1.53;;
73733;SDS011;62039;50.000;9.064;2022-12-24T06:18:14;5.13;;;1.73;;
73733;SDS011;62039;50.000;9.064;2022-12-24T06:20:40;4.60;;;1.70;;
73733;SDS011;62039;50.000;9.064;2022-12-24T06:23:07;3.67;;;1.50;;
73733;SDS011;62039;50.000;9.064;2022-12-24T06:25:35;5.40;;;1.67;;
73733;SDS011;62039;50.000;9.064;2022-12-24T06:28:01;5.03;;;1.90;;
73733;SDS011;62039;50.000;9.064;2022-12-24T06:30:28;5.23;;;1.57;;
73733;SDS011;62039;50.000;9.064;2022-12-24T06:32:54;4.70;;;1.83;;
73733;SDS011;62039;50.000;9.064;2022-12-24T06:35:21;4.07;;;2.00;;
73733;SDS011;62039;50.000;9.064;2022-12-24T06:37:47;6.27;;;2.40;;
73733;SDS011;62039;50.000;9.064;2022-12-24T06:40:14;6.73;;;2.93;;
73733;SDS011;62039;50.000;9.064;2022-12-24T06:42:42;8.80;;;3.07;;
73733;SDS011;62039;50.000;9.064;2022-12-24T06:45:09;6.37;;;2.60;;
73733;SDS011;62039;50.000;9.064;2022-12-24T06:47:36;5.30;;;1.97;;
73733;SDS011;62039;50.000;9.064;2022-12-24T06:50:03;4.97;;;1.90;;
73733;SDS011;62039;50.000;9.064;2022-12-24T06:52:30;6.83;;;2.33;;
73733;SDS011;62039;50.000;9.064;2022-12-24T06:54:57;5.77;;;2.17;;
73733;SDS011;62039;50.000;9.064;2022-12-24T06:57:23;5.37;;;1.93;;
73733;SDS011;62039;50.000;9.064;2022-12-24T06:59:51;6.37;;;2.53;;
73733;SDS011;62039;50.000;9.064;2022-12-24T07:02:17;6.03;;;2.43;;
73733;SDS011;62039;50.000;9.064;2022-12-24T07:04:44;6.13;;;2.57;;
73733;SDS011;62039;50.000;9.064;2022-12-24T07:07:11;8.13;;;2.13;;
73733;SDS011;62039;50.000;9.064;2022-12-24T07:09:37;6.90;;;2.30;;
73733;SDS011;62039;50.000;9.064;2022-12-24T07:12:04;4.60;;;1.77;;
73733;SDS011;62039;50.000;9.064;2022-12-24T07:14:31;6.63;;;1.97;;
73733;SDS011;62039;50.000;9.064;2022-12-24T07:16:59;6.53;;;2.30;;
73733;SDS011;62039;50.000;9.064;2022-12-24T07:19:25;6.63;;;1.80;;
73733;SDS011;62039;50.000;9.064;2022-12-24T07:21:52;9.63;;;2.40;;
73733;SDS011;62039;50.000;9.064;2022-12-24T07:24:18;7.40;;;2.13;;
73733;SDS011;62039;50.000;9.064;2022-12-24T07:26:45;6.93;;;2.60;;
73733;SDS011;62039;50.000;9.064;2022-12-24T07:29:11;8.47;;;2.53;;
73733;SDS011;62039;50.000;9.064;2022-12-24T07:31:38;5.57;;;2.40;;
73733;SDS011;62039;50.000;9.064;2022-12-24T07:34:06;8.93;;;2.80;;
73733;SDS011;62039;50.000;9.064;2022-12-24T07:36:33;8.50;;;2.57;;
73733;SDS011;62039;50.000;9.064;2022-12-24T07:38:59;8.00;;;2.50;;
73733;SDS011;62039;50.000;9.064;2022-12-24T07:41:26;6.37;;;1.90;;
73733;SDS011;62039;50.000;9.064;2022-12-24T07:43:52;7.50;;;2.90;;
73733;SDS011;62039;50.000;9.064;2022-12-24T07:46:19;6.93;;;2.90;;
73733;SDS011;62039;50.000;9.064;2022-12-24T07:48:45;8.93;;;3.43;;
73733;SDS011;62039;50.000;9.064;2022-12-24T07:51:13;7.13;;;2.77;;
73733;SDS011;62039;50.000;9.064;2022-12-24T07:53:40;6.73;;;3.20;;
73733;SDS011;62039;50.000;9.064;2022-12-24T07:56:06;6.40;;;2.97;;
73733;SDS011;62039;50.000;9.064;2022-12-24T07:58:38;9.03;;;3.17;;
73733;SDS011;62039;50.000;9.064;2022-12-24T08:01:04;10.47;;;3.70;;
73733;SDS011;62039;50.000;9.064;2022-12-24T08:03:31;11.73;;;3.70;;
73733;SDS011;62039;50.000;9.064;2022-12-24T08:05:58;11.33;;;3.03;;
73733;SDS011;62039;50.000;9.064;2022-12-24T08:08:26;8.00;;;2.83;;
73733;SDS011;62039;50.000;9.064;2022-12-24T08:10:52;8.97;;;2.80;;
73733;SDS011;62039;50.000;9.064;2022-12-24T08:13:25;11.03;;;2.90;;
73733;SDS011;62039;50.000;9.064;2022-12-24T08:15:51;7.03;;;2.63;;
73733;SDS011;62039;50.000;9.064;2022-12-24T08:18:18;6.87;;;2.43;;
73733;SDS011;62039;50.000;9.064;2022-12-24T08:20:44;7.37;;;2.67;;
73733;SDS011;62039;50.000;9.064;2022-12-24T08:23:11;5.73;;;2.37;;
73733;SDS011;62039;50.000;9.064;2022-12-24T08:25:42;8.93;;;3.33;;
73733;SDS011;62039;50.000;9.064;2022-12-24T08:28:09;11.23;;;3.83;;
73733;SDS011;62039;50.000;9.064;2022-12-24T08:30:36;7.00;;;2.60;;
73733;SDS011;62039;50.000;9.064;2022-12-24T08:33:02;11.30;;;3.87;;
73733;SDS011;62039;50.000;9.064;2022-12-24T08:35:29;8.73;;;3.20;;
73733;SDS011;62039;50.000;9.064;2022-12-24T08:37:56;6.07;;;3.00;;
73733;SDS011;62039;50.000;9.064;2022-12-24T08:40:23;6.93;;;2.90;;
73733;SDS011;62039;50.000;9.064;2022-12-24T08:42:51;10.57;;;5.03;;
73733;SDS011;62039;50.000;9.064;2022-12-24T08:45:18;10.97;;;5.73;;
73733;SDS011;62039;50.000;9.064;2022-12-24T08:47:44;10.43;;;5.60;;
73733;SDS011;62039;50.000;9.064;2022-12-24T08:50:11;14.30;;;5.87;;
73733;SDS011;62039;50.000;9.064;2022-12-24T08:52:38;16.93;;;8.53;;
73733;SDS011;62039;50.000;9.064;2022-12-24T08:55:05;14.93;;;7.17;;
73733;SDS011;62039;50.000;9.064;2022-12-24T08:57:33;17.10;;;9.60;;
73733;SDS011;62039;50.000;9.064;2022-12-24T09:00:02;22.90;;;13.13;;
73733;SDS011;62039;50.000;9.064;2022-12-24T09:02:29;14.77;;;8.30;;
73733;SDS011;62039;50.000;9.064;2022-12-24T09:04:56;13.43;;;5.33;;
73733;SDS011;62039;50.000;9.064;2022-12-24T09:07:22;12.80;;;5.57;;
73733;SDS011;62039;50.000;9.064;2022-12-24T09:09:49;13.37;;;5.10;;
73733;SDS011;62039;50.000;9.064;2022-12-24T09:12:15;12.90;;;5.00;;
73733;SDS011;62039;50.000;9.064;2022-12-24T09:14:42;9.67;;;3.23;;
73733;SDS011;62039;50.000;9.064;2022-12-24T09:17:10;12.53;;;4.17;;
73733;SDS011;62039;50.000;9.064;2022-12-24T09:19:36;11.83;;;5.53;;
73733;SDS011;62039;50.000;9.064;2022-12-24T09:22:03;10.10;;;4.10;;
73733;SDS011;62039;50.000;9.064;2022-12-24T09:24:30;8.17;;;3.13;;
73733;SDS011;62039;50.000;9.064;2022-12-24T09:26:56;6.47;;;2.63;;
73733;SDS011;62039;50.000;9.064;2022-12-24T09:29:23;4.97;;;2.33;;
73733;SDS011;62039;50.000;9.064;2022-12-24T09:31:50;5.33;;;2.60;;
73733;SDS011;62039;50.000;9.064;2022-12-24T09:34:18;5.90;;;2.83;;
73733;SDS011;62039;50.000;9.064;2022-12-24T09:36:50;6.83;;;2.57;;
73733;SDS011;62039;50.000;9.064;2022-12-24T09:39:17;5.27;;;2.60;;
73733;SDS011;62039;50.000;9.064;2022-12-24T09:41:46;7.33;;;2.90;;
73733;SDS011;62039;50.000;9.064;2022-12-24T09:44:27;7.13;;;2.67;;
73733;SDS011;62039;50.000;9.064;2022-12-24T09:47:00;6.03;;;2.70;;
73733;SDS011;62039;50.000;9.064;2022-12-24T09:49:38;6.63;;;3.03;;
73733;SDS011;62039;50.000;9.064;2022-12-24T09:52:08;7.70;;;3.30;;
73733;SDS011;62039;50.000;9.064;2022-12-24T09:54:38;9.47;;;3.00;;
73733;SDS011;62039;50.000;9.064;2022-12-24T09:57:16;10.13;;;3.47;;
73733;SDS011;62039;50.000;9.064;2022-12-24T09:59:48;8.00;;;2.90;;
73733;SDS011;62039;50.000;9.064;2022-12-24T10:02:15;8.03;;;2.33;;
73733;SDS011;62039;50.000;9.064;2022-12-24T10:04:46;7.87;;;3.10;;
73733;SDS011;62039;50.000;9.064;2022-12-24T10:07:17;6.77;;;2.50;;
73733;SDS011;62039;50.000;9.064;2022-12-24T10:09:54;6.97;;;2.27;;
73733;SDS011;62039;50.000;9.064;2022-12-24T10:12:30;5.37;;;2.23;;
73733;SDS011;62039;50.000;9.064;2022-12-24T10:15:07;5.97;;;2.17;;
73733;SDS011;62039;50.000;9.064;2022-12-24T10:17:42;8.07;;;3.13;;
73733;SDS011;62039;50.000;9.064;2022-12-24T10:23:10;10.90;;;3.17;;
73733;SDS011;62039;50.000;9.064;2022-12-24T10:25:43;5.83;;;2.20;;
73733;SDS011;62039;50.000;9.064;2022-12-24T10:28:14;7.73;;;2.70;;
73733;SDS011;62039;50.000;9.064;2022-12-24T10:30:43;7.40;;;2.53;;
73733;SDS011;62039;50.000;9.064;2022-12-24T10:33:15;9.40;;;2.80;;
73733;SDS011;62039;50.000;9.064;2022-12-24T10:35:47;6.23;;;2.90;;
73733;SDS011;62039;50.000;9.064;2022-12-24T10:38:17;8.80;;;3.10;;
73733;SDS011;62039;50.000;9.064;2022-12-24T10:40:44;8.07;;;2.80;;
73733;SDS011;62039;50.000;9.064;2022-12-24T10:43:14;7.47;;;2.87;;
73733;SDS011;62039;50.000;9.064;2022-12-24T10:45:45;6.50;;;2.83;;
73733;SDS011;62039;50.000;9.064;2022-12-24T10:48:16;9.87;;;2.70;;
73733;SDS011;62039;50.000;9.064;2022-12-24T10:50:51;6.07;;;2.30;;
73733;SDS011;62039;50.000;9.064;2022-12-24T10:53:22;7.23;;;2.43;;
73733;SDS011;62039;50.000;9.064;2022-12-24T10:55:51;9.50;;;4.20;;
73733;SDS011;62039;50.000;9.064;2022-12-24T10:58:27;7.83;;;2.93;;
73733;SDS011;62039;50.000;9.064;2022-12-24T11:00:53;10.03;;;3.43;;
73733;SDS011;62039;50.000;9.064;2022-12-24T11:03:21;8.10;;;3.27;;
73733;SDS011;62039;50.000;9.064;2022-12-24T11:06:02;8.37;;;2.70;;
73733;SDS011;62039;50.000;9.064;2022-12-24T11:08:33;4.93;;;2.10;;
73733;SDS011;62039;50.000;9.064;2022-12-24T11:11:01;6.80;;;2.20;;
73733;SDS011;62039;50.000;9.064;2022-12-24T11:13:30;9.53;;;3.10;;
73733;SDS011;62039;50.000;9.064;2022-12-24T11:16:05;7.07;;;2.90;;
73733;SDS011;62039;50.000;9.064;2022-12-24T11:18:36;12.97;;;3.30;;
73733;SDS011;62039;50.000;9.064;2022-12-24T11:21:21;7.00;;;2.73;;
73733;SDS011;62039;50.000;9.064;2022-12-24T11:23:52;10.73;;;3.53;;
73733;SDS011;62039;50.000;9.064;2022-12-24T11:26:21;7.13;;;2.47;;
73733;SDS011;62039;50.000;9.064;2022-12-24T11:29:05;6.83;;;1.97;;
73733;SDS011;62039;50.000;9.064;2022-12-24T11:31:42;5.13;;;2.40;;
73733;SDS011;62039;50.000;9.064;2022-12-24T11:37:06;9.13;;;2.77;;
73733;SDS011;62039;50.000;9.064;2022-12-24T11:39:40;7.77;;;2.20;;
73733;SDS011;62039;50.000;9.064;2022-12-24T11:42:19;7.33;;;2.93;;
73733;SDS011;62039;50.000;9.064;2022-12-24T11:44:50;7.00;;;2.77;;
73733;SDS011;62039;50.000;9.064;2022-12-24T11:47:18;7.60;;;2.70;;
73733;SDS011;62039;50.000;9.064;2022-12-24T11:50:01;7.30;;;2.83;;
73733;SDS011;62039;50.000;9.064;2022-12-24T11:52:46;8.23;;;2.40;;
73733;SDS011;62039;50.000;9.064;2022-12-24T11:55:18;4.73;;;1.80;;
73733;SDS011;62039;50.000;9.064;2022-12-24T11:57:51;7.93;;;2.10;;
73733;SDS011;62039;50.000;9.064;2022-12-24T12:00:23;5.60;;;2.17;;
73733;SDS011;62039;50.000;9.064;2022-12-24T12:02:51;5.87;;;2.30;;
73733;SDS011;62039;50.000;9.064;2022-12-24T12:05:21;7.20;;;2.50;;
73733;SDS011;62039;50.000;9.064;2022-12-24T12:07:53;7.50;;;3.13;;
73733;SDS011;62039;50.000;9.064;2022-12-24T12:10:24;15.77;;;3.63;;
73733;SDS011;62039;50.000;9.064;2022-12-24T12:12:56;8.67;;;3.63;;
73733;SDS011;62039;50.000;9.064;2022-12-24T12:15:26;12.43;;;4.27;;
73733;SDS011;62039;50.000;9.064;2022-12-24T12:17:59;10.27;;;3.83;;
73733;SDS011;62039;50.000;9.064;2022-12-24T12:20:33;10.80;;;3.60;;
73733;SDS011;62039;50.000;9.064;2022-12-24T12:23:04;7.93;;;3.53;;
73733;SDS011;62039;50.000;9.064;2022-12-24T12:25:42;11.40;;;3.60;;
73733;SDS011;62039;50.000;9.064;2022-12-24T12:28:14;9.60;;;3.73;;
73733;SDS011;62039;50.000;9.064;2022-12-24T12:30:46;11.80;;;3.17;;
73733;SDS011;62039;50.000;9.064;2022-12-24T12:33:25;10.13;;;3.50;;
73733;SDS011;62039;50.000;9.064;2022-12-24T12:35:56;7.83;;;2.70;;
73733;SDS011;62039;50.000;9.064;2022-12-24T12:38:27;7.10;;;2.57;;
73733;SDS011;62039;50.000;9.064;2022-12-24T12:41:08;8.93;;;3.17;;
73733;SDS011;62039;50.000;9.064;2022-12-24T12:43:55;11.20;;;3.37;;
73733;SDS011;62039;50.000;9.064;2022-12-24T12:46:37;10.23;;;2.73;;
73733;SDS011;62039;50.000;9.064;2022-12-24T12:49:15;9.23;;;3.47;;
73733;SDS011;62039;50.000;9.064;2022-12-24T12:51:51;7.93;;;3.00;;
73733;SDS011;62039;50.000;9.064;2022-12-24T12:54:31;9.30;;;3.03;;
73733;SDS011;62039;50.000;9.064;2022-12-24T12:57:04;10.10;;;3.00;;
73733;SDS011;62039;50.000;9.064;2022-12-24T12:59:37;11.60;;;3.97;;
73733;SDS011;62039;50.000;9.064;2022-12-24T13:02:16;11.60;;;3.83;;
73733;SDS011;62039;50.000;9.064;2022-12-24T13:04:56;10.13;;;2.97;;
73733;SDS011;62039;50.000;9.064;2022-12-24T13:13:31;9.63;;;3.27;;
73733;SDS011;62039;50.000;9.064;2022-12-24T13:19:00;11.73;;;3.53;;
73733;SDS011;62039;50.000;9.064;2022-12-24T13:21:35;9.83;;;2.77;;
73733;SDS011;62039;50.000;9.064;2022-12-24T13:24:05;9.07;;;2.50;;
73733;SDS011;62039;50.000;9.064;2022-12-24T13:26:34;9.30;;;2.60;;
73733;SDS011;62039;50.000;9.064;2022-12-24T13:29:28;7.07;;;3.00;;
73733;SDS011;62039;50.000;9.064;2022-12-24T13:32:03;10.10;;;3.70;;
73733;SDS011;62039;50.000;9.064;2022-12-24T13:44:16;7.13;;;4.33;;
73733;SDS011;62039;50.000;9.064;2022-12-24T13:46:49;7.23;;;4.20;;
73733;SDS011;62039;50.000;9.064;2022-12-24T13:49:18;9.20;;;4.17;;
73733;SDS011;62039;50.000;9.064;2022-12-24T13:51:48;9.93;;;4.00;;
73733;SDS011;62039;50.000;9.064;2022-12-24T13:54:14;7.17;;;2.70;;
73733;SDS011;62039;50.000;9.064;2022-12-24T13:56:45;7.03;;;2.77;;
73733;SDS011;62039;50.000;9.064;2022-12-24T13:59:17;6.47;;;3.07;;
73733;SDS011;62039;50.000;9.064;2022-12-24T14:01:58;7.30;;;3.87;;
73733;SDS011;62039;50.000;9.064;2022-12-24T14:04:26;10.00;;;3.53;;
73733;SDS011;62039;50.000;9.064;2022-12-24T14:06:56;7.73;;;3.13;;
73733;SDS011;62039;50.000;9.064;2022-12-24T14:09:25;7.83;;;3.03;;
73733;SDS011;62039;50.000;9.064;2022-12-24T14:14:42;7.80;;;3.50;;
73733;SDS011;62039;50.000;9.064;2022-12-24T14:17:10;7.33;;;2.80;;
73733;SDS011;62039;50.000;9.064;2022-12-24T14:19:40;5.60;;;2.87;;
73733;SDS011;62039;50.000;9.064;2022-12-24T14:22:16;6.20;;;3.40;;
73733;SDS011;62039;50.000;9.064;2022-12-24T14:24:54;7.13;;;3.10;;
73733;SDS011;62039;50.000;9.064;2022-12-24T14:27:24;7.47;;;2.70;;
73733;SDS011;62039;50.000;9.064;2022-12-24T14:29:59;6.27;;;2.23;;
73733;SDS011;62039;50.000;9.064;2022-12-24T14:32:32;9.17;;;3.00;;
73733;SDS011;62039;50.000;9.064;2022-12-24T14:35:07;8.53;;;4.13;;
73733;SDS011;62039;50.000;9.064;2022-12-24T14:37:41;8.70;;;3.47;;
73733;SDS011;62039;50.000;9.064;2022-12-24T14:40:12;7.03;;;3.63;;
73733;SDS011;62039;50.000;9.064;2022-12-24T14:42:42;8.47;;;4.10;;
73733;SDS011;62039;50.000;9.064;2022-12-24T14:45:17;8.03;;;3.83;;
73733;SDS011;62039;50.000;9.064;2022-12-24T14:47:52;10.50;;;5.10;;
73733;SDS011;62039;50.000;9.064;2022-12-24T14:50:30;9.20;;;5.33;;
73733;SDS011;62039;50.000;9.064;2022-12-24T14:53:11;14.27;;;6.30;;
73733;SDS011;62039;50.000;9.064;2022-12-24T14:55:46;17.93;;;9.17;;
73733;SDS011;62039;50.000;9.064;2022-12-24T14:58:18;12.63;;;7.27;;
73733;SDS011;62039;50.000;9.064;2022-12-24T15:00:48;8.23;;;4.63;;
73733;SDS011;62039;50.000;9.064;2022-12-24T15:03:16;9.23;;;4.77;;
73733;SDS011;62039;50.000;9.064;2022-12-24T15:05:43;8.67;;;4.57;;
73733;SDS011;62039;50.000;9.064;2022-12-24T15:08:13;9.63;;;4.97;;
73733;SDS011;62039;50.000;9.064;2022-12-24T15:10:43;10.80;;;5.13;;
73733;SDS011;62039;50.000;9.064;2022-12-24T15:13:14;13.83;;;7.93;;
73733;SDS011;62039;50.000;9.064;2022-12-24T15:15:48;20.73;;;12.63;;
73733;SDS011;62039;50.000;9.064;2022-12-24T15:18:19;16.83;;;11.40;;
73733;SDS011;62039;50.000;9.064;2022-12-24T15:20:50;18.03;;;11.27;;
73733;SDS011;62039;50.000;9.064;2022-12-24T15:23:29;10.17;;;7.37;;
73733;SDS011;62039;50.000;9.064;2022-12-24T15:26:07;12.97;;;5.73;;
73733;SDS011;62039;50.000;9.064;2022-12-24T15:28:39;8.33;;;4.80;;
73733;SDS011;62039;50.000;9.064;2022-12-24T15:31:07;8.33;;;4.37;;
73733;SDS011;62039;50.000;9.064;2022-12-24T15:33:36;9.60;;;4.13;;
73733;SDS011;62039;50.000;9.064;2022-12-24T15:36:03;7.37;;;4.17;;